createdAt,value
2018-12-10T00:01:00.653Z,0
2018-12-10T00:02:08.703Z,0
2018-12-10T00:03:16.751Z,0
2018-12-10T00:04:24.800Z,0
2018-12-10T00:05:32.869Z,0
2018-12-10T00:06:40.931Z,0
2018-12-10T00:07:48.987Z,0
2018-12-10T00:08:57.054Z,0
2018-12-10T00:10:05.078Z,0
2018-12-10T00:11:13.176Z,0
2018-12-10T00:12:21.230Z,0
2018-12-10T00:13:29.275Z,0
2018-12-10T00:14:37.340Z,0
2018-12-10T00:15:45.374Z,0
2018-12-10T00:16:53.460Z,0
2018-12-10T00:18:01.510Z,0
2018-12-10T00:19:09.550Z,0
2018-12-10T00:20:17.627Z,0
2018-12-10T00:21:25.672Z,0
2018-12-10T00:22:33.744Z,0
2018-12-10T00:23:41.801Z,0
2018-12-10T00:24:49.856Z,0
2018-12-10T00:25:57.909Z,0
2018-12-10T00:27:05.959Z,0
2018-12-10T00:28:14.033Z,0
2018-12-10T00:29:22.078Z,0
2018-12-10T00:30:30.140Z,0
2018-12-10T00:31:38.214Z,0
2018-12-10T00:32:46.274Z,0
2018-12-10T00:33:54.330Z,0
2018-12-10T00:35:02.414Z,0
2018-12-10T00:36:10.440Z,0
2018-12-10T00:37:18.589Z,0
2018-12-10T00:38:26.557Z,0
2018-12-10T00:39:34.617Z,0
2018-12-10T00:40:42.672Z,0
2018-12-10T00:41:50.738Z,0
2018-12-10T00:42:58.783Z,0
2018-12-10T00:44:06.843Z,0
2018-12-10T00:45:14.871Z,0
2018-12-10T00:46:22.966Z,0
2018-12-10T00:47:31.124Z,0
2018-12-10T00:48:39.074Z,0
2018-12-10T00:49:47.128Z,0
2018-12-10T00:50:55.171Z,0
2018-12-10T00:52:03.257Z,0
2018-12-10T00:53:11.308Z,0
2018-12-10T00:54:19.367Z,0
2018-12-10T00:55:27.421Z,0
2018-12-10T00:56:35.462Z,0
2018-12-10T00:57:43.549Z,0
2018-12-10T00:58:51.597Z,0
2018-12-10T00:59:59.651Z,0
2018-12-10T01:01:07.698Z,0
2018-12-10T01:02:15.752Z,0
2018-12-10T01:03:23.825Z,0
2018-12-10T01:04:31.881Z,0
2018-12-10T01:05:39.938Z,0
2018-12-10T01:06:47.999Z,0
2018-12-10T01:07:56.044Z,0
2018-12-10T01:09:04.121Z,0
2018-12-10T01:10:12.174Z,0
2018-12-10T01:11:20.227Z,0
2018-12-10T01:12:28.387Z,0
2018-12-10T01:13:36.352Z,0
2018-12-10T01:14:44.402Z,0
2018-12-10T01:15:52.475Z,0
2018-12-10T01:17:00.608Z,0
2018-12-10T01:18:08.577Z,0
2018-12-10T01:19:16.632Z,0
2018-12-10T01:20:24.694Z,0
2018-12-10T01:21:32.754Z,0
2018-12-10T01:22:40.802Z,0
2018-12-10T01:23:48.889Z,0
2018-12-10T01:24:56.923Z,0
2018-12-10T01:26:04.967Z,0
2018-12-10T01:27:13.042Z,0
2018-12-10T01:28:21.097Z,0
2018-12-10T01:29:29.162Z,0
2018-12-10T01:30:37.210Z,0
2018-12-10T01:31:45.251Z,0
2018-12-10T01:32:53.316Z,0
2018-12-10T01:34:01.396Z,0
2018-12-10T01:35:09.454Z,0
2018-12-10T01:36:17.513Z,0
2018-12-10T01:37:25.534Z,0
2018-12-10T01:38:33.612Z,0
2018-12-10T01:39:41.679Z,0
2018-12-10T01:40:49.727Z,0
2018-12-10T01:41:57.791Z,0
2018-12-10T01:43:05.824Z,0
2018-12-10T01:44:13.911Z,0
2018-12-10T01:45:21.958Z,0
2018-12-10T01:46:30.008Z,0
2018-12-10T01:47:38.068Z,0
2018-12-10T01:48:46.141Z,0
2018-12-10T01:49:54.192Z,0
2018-12-10T01:51:02.248Z,0
2018-12-10T01:52:10.315Z,0
2018-12-10T01:53:18.362Z,0
2018-12-10T01:54:26.423Z,0
2018-12-10T01:55:34.471Z,0
2018-12-10T01:56:42.540Z,0
2018-12-10T01:57:50.591Z,0
2018-12-10T01:58:58.660Z,0
2018-12-10T02:00:06.715Z,0
2018-12-10T02:01:14.755Z,0
2018-12-10T02:02:22.824Z,0
2018-12-10T02:03:30.891Z,0
2018-12-10T02:04:38.950Z,0
2018-12-10T02:05:46.983Z,0
2018-12-10T02:06:55.024Z,0
2018-12-10T02:08:03.118Z,0
2018-12-10T02:09:11.180Z,0
2018-12-10T02:10:19.222Z,0
2018-12-10T02:11:27.295Z,0
2018-12-10T02:12:35.327Z,0
2018-12-10T02:13:43.411Z,0
2018-12-10T02:14:51.466Z,0
2018-12-10T02:15:59.522Z,0
2018-12-10T02:17:07.709Z,0
2018-12-10T02:18:15.608Z,0
2018-12-10T02:19:23.686Z,0
2018-12-10T02:20:31.748Z,0
2018-12-10T02:21:39.818Z,0
2018-12-10T02:22:47.863Z,0
2018-12-10T02:23:55.917Z,0
2018-12-10T02:25:03.967Z,0
2018-12-10T02:26:12.046Z,0
2018-12-10T02:27:20.097Z,0
2018-12-10T02:28:28.169Z,0
2018-12-10T02:29:36.187Z,0
2018-12-10T02:30:44.267Z,0
2018-12-10T02:31:52.318Z,0
2018-12-10T02:33:00.410Z,0
2018-12-10T02:34:08.437Z,0
2018-12-10T02:35:16.490Z,0
2018-12-10T02:36:24.553Z,0
2018-12-10T02:37:32.619Z,0
2018-12-10T02:38:40.669Z,0
2018-12-10T02:39:48.734Z,0
2018-12-10T02:40:56.781Z,0
2018-12-10T02:42:04.847Z,0
2018-12-10T02:43:12.910Z,0
2018-12-10T02:44:20.964Z,0
2018-12-10T02:45:29.019Z,0
2018-12-10T02:46:37.083Z,0
2018-12-10T02:47:45.108Z,0
2018-12-10T02:48:53.193Z,0
2018-12-10T02:50:01.288Z,0
2018-12-10T02:51:09.298Z,0
2018-12-10T02:52:17.369Z,0
2018-12-10T02:53:25.410Z,0
2018-12-10T02:54:33.460Z,0
2018-12-10T02:55:41.537Z,0
2018-12-10T02:56:49.590Z,0
2018-12-10T02:57:57.661Z,0
2018-12-10T02:59:05.684Z,0
2018-12-10T03:00:13.768Z,0
2018-12-10T03:01:21.826Z,0
2018-12-10T03:02:29.884Z,0
2018-12-10T03:03:37.936Z,0
2018-12-10T03:04:45.982Z,0
2018-12-10T03:05:54.506Z,0
2018-12-10T03:07:02.126Z,0
2018-12-10T03:08:10.171Z,0
2018-12-10T03:09:18.219Z,0
2018-12-10T03:10:26.313Z,0
2018-12-10T03:11:34.341Z,0
2018-12-10T03:12:42.403Z,0
2018-12-10T03:13:50.457Z,0
2018-12-10T03:14:58.520Z,0
2018-12-10T03:16:06.579Z,0
2018-12-10T03:17:14.629Z,0
2018-12-10T03:18:22.684Z,0
2018-12-10T03:19:30.750Z,0
2018-12-10T03:20:38.812Z,0
2018-12-10T03:21:46.861Z,0
2018-12-10T03:22:54.913Z,0
2018-12-10T03:24:02.987Z,0
2018-12-10T03:25:11.051Z,0
2018-12-10T03:26:19.105Z,0
2018-12-10T03:27:27.247Z,0
2018-12-10T03:28:35.203Z,0
2018-12-10T03:29:43.273Z,0
2018-12-10T03:30:51.330Z,0
2018-12-10T03:31:59.390Z,0
2018-12-10T03:33:07.433Z,0
2018-12-10T03:34:15.475Z,0
2018-12-10T03:35:23.552Z,0
2018-12-10T03:36:31.613Z,0
2018-12-10T03:37:39.680Z,0
2018-12-10T03:38:47.750Z,0
2018-12-10T03:39:55.768Z,0
2018-12-10T03:41:03.848Z,0
2018-12-10T03:42:11.901Z,0
2018-12-10T03:43:19.953Z,0
2018-12-10T03:44:28.039Z,0
2018-12-10T03:45:36.078Z,0
2018-12-10T03:46:44.116Z,0
2018-12-10T03:47:52.177Z,0
2018-12-10T03:49:00.245Z,0
2018-12-10T03:50:08.308Z,0
2018-12-10T03:51:16.358Z,0
2018-12-10T03:52:24.422Z,0
2018-12-10T03:53:32.485Z,0
2018-12-10T03:54:40.580Z,0
2018-12-10T03:55:48.638Z,0
2018-12-10T03:56:56.670Z,0
2018-12-10T03:58:04.724Z,0
2018-12-10T03:59:12.834Z,0
2018-12-10T04:00:20.915Z,0
2018-12-10T04:01:28.901Z,0
2018-12-10T04:02:36.955Z,0
2018-12-10T04:03:44.999Z,0
2018-12-10T04:04:53.040Z,0
2018-12-10T04:06:01.118Z,0
2018-12-10T04:07:09.167Z,0
2018-12-10T04:08:17.231Z,0
2018-12-10T04:09:25.277Z,0
2018-12-10T04:10:33.350Z,0
2018-12-10T04:11:41.409Z,0
2018-12-10T04:12:49.468Z,0
2018-12-10T04:13:58.582Z,0
2018-12-10T04:15:05.545Z,0
2018-12-10T04:16:13.642Z,0
2018-12-10T04:17:21.705Z,0
2018-12-10T04:18:29.743Z,0
2018-12-10T04:19:37.818Z,0
2018-12-10T04:20:45.854Z,0
2018-12-10T04:21:53.927Z,0
2018-12-10T04:23:01.973Z,0
2018-12-10T04:24:10.037Z,0
2018-12-10T04:25:18.093Z,0
2018-12-10T04:26:26.152Z,0
2018-12-10T04:27:34.205Z,0
2018-12-10T04:28:42.272Z,0
2018-12-10T04:29:50.332Z,0
2018-12-10T04:30:58.384Z,0
2018-12-10T04:32:06.450Z,0
2018-12-10T04:33:14.508Z,0
2018-12-10T04:34:22.572Z,0
2018-12-10T04:35:30.614Z,0
2018-12-10T04:36:38.670Z,0
2018-12-10T04:37:46.738Z,0
2018-12-10T04:38:54.788Z,0
2018-12-10T04:40:02.845Z,0
2018-12-10T04:41:10.905Z,0
2018-12-10T04:42:18.957Z,0
2018-12-10T04:43:27.016Z,0
2018-12-10T04:44:35.062Z,0
2018-12-10T04:45:43.123Z,0
2018-12-10T04:46:51.187Z,0
2018-12-10T04:47:59.249Z,0
2018-12-10T04:49:07.303Z,0
2018-12-10T04:50:15.344Z,0
2018-12-10T04:51:23.424Z,0
2018-12-10T04:52:31.490Z,0
2018-12-10T04:53:39.528Z,0
2018-12-10T04:54:47.601Z,0
2018-12-10T04:55:55.633Z,0
2018-12-10T04:57:03.708Z,0
2018-12-10T04:58:11.773Z,0
2018-12-10T04:59:19.827Z,0
2018-12-10T05:00:27.878Z,0
2018-12-10T05:01:35.924Z,0
2018-12-10T05:02:43.989Z,0
2018-12-10T05:03:52.056Z,0
2018-12-10T05:05:00.107Z,0
2018-12-10T05:06:08.163Z,0
2018-12-10T05:07:16.219Z,0
2018-12-10T05:08:24.289Z,0
2018-12-10T05:09:32.350Z,0
2018-12-10T05:10:40.403Z,0
2018-12-10T05:11:48.492Z,0
2018-12-10T05:12:56.547Z,0
2018-12-10T05:14:04.572Z,0
2018-12-10T05:15:12.634Z,0
2018-12-10T05:16:20.754Z,0
2018-12-10T05:17:28.744Z,0
2018-12-10T05:18:36.805Z,0
2018-12-10T05:19:44.844Z,0
2018-12-10T05:20:52.928Z,0
2018-12-10T05:22:01.034Z,0
2018-12-10T05:23:09.028Z,0
2018-12-10T05:24:17.108Z,0
2018-12-10T05:25:25.126Z,0
2018-12-10T05:26:33.214Z,0
2018-12-10T05:27:41.277Z,0
2018-12-10T05:28:49.380Z,0
2018-12-10T05:29:57.423Z,0
2018-12-10T05:31:05.416Z,0
2018-12-10T05:32:13.505Z,0
2018-12-10T05:33:21.553Z,0
2018-12-10T05:34:29.612Z,0
2018-12-10T05:35:38.142Z,0
2018-12-10T05:36:45.713Z,0
2018-12-10T05:37:54.590Z,0
2018-12-10T05:39:01.844Z,0
2018-12-10T05:40:09.899Z,0
2018-12-10T05:41:18.229Z,0
2018-12-10T05:42:26.016Z,0
2018-12-10T05:43:34.071Z,0
2018-12-10T05:44:43.561Z,0
2018-12-10T05:45:50.201Z,0
2018-12-10T05:46:58.269Z,0
2018-12-10T05:48:06.299Z,0
2018-12-10T05:49:14.362Z,0
2018-12-10T05:50:22.423Z,0
2018-12-10T05:51:30.489Z,0
2018-12-10T05:52:38.550Z,0
2018-12-10T05:53:46.589Z,0
2018-12-10T05:54:54.675Z,0
2018-12-10T05:56:02.720Z,0
2018-12-10T05:57:10.778Z,0
2018-12-10T05:58:18.813Z,0
2018-12-10T05:59:27.079Z,0
2018-12-10T06:00:34.956Z,4
2018-12-10T06:01:43.099Z,0
2018-12-10T06:02:51.429Z,0
2018-12-10T06:03:59.134Z,0
2018-12-10T06:05:07.173Z,0
2018-12-10T06:06:15.223Z,0
2018-12-10T06:07:23.296Z,0
2018-12-10T06:08:31.342Z,0
2018-12-10T06:09:39.419Z,0
2018-12-10T06:10:47.460Z,0
2018-12-10T06:11:55.500Z,0
2018-12-10T06:13:03.583Z,0
2018-12-10T06:14:11.647Z,0
2018-12-10T06:15:19.684Z,0
2018-12-10T06:16:27.750Z,0
2018-12-10T06:17:35.804Z,0
2018-12-10T06:18:43.874Z,0
2018-12-10T06:19:51.935Z,0
2018-12-10T06:20:59.967Z,0
2018-12-10T06:22:08.031Z,0
2018-12-10T06:23:16.115Z,0
2018-12-10T06:24:24.155Z,0
2018-12-10T06:25:32.212Z,0
2018-12-10T06:26:40.271Z,0
2018-12-10T06:27:48.339Z,0
2018-12-10T06:28:56.395Z,0
2018-12-10T06:30:04.436Z,4
2018-12-10T06:31:12.503Z,4
2018-12-10T06:32:20.572Z,0
2018-12-10T06:33:28.619Z,4
2018-12-10T06:34:36.668Z,4
2018-12-10T06:35:44.729Z,8
2018-12-10T06:36:52.784Z,8
2018-12-10T06:38:00.863Z,12
2018-12-10T06:39:08.907Z,8
2018-12-10T06:40:16.970Z,12
2018-12-10T06:41:25.010Z,16
2018-12-10T06:42:33.091Z,20
2018-12-10T06:43:41.126Z,20
2018-12-10T06:44:49.189Z,28
2018-12-10T06:45:57.259Z,32
2018-12-10T06:47:05.294Z,40
2018-12-10T06:48:13.403Z,48
2018-12-10T06:49:21.455Z,52
2018-12-10T06:50:29.485Z,64
2018-12-10T06:51:37.531Z,72
2018-12-10T06:52:45.570Z,84
2018-12-10T06:53:53.651Z,92
2018-12-10T06:55:01.724Z,108
2018-12-10T06:56:09.767Z,120
2018-12-10T06:57:17.827Z,132
2018-12-10T06:58:25.858Z,148
2018-12-10T06:59:33.928Z,160
2018-12-10T07:00:41.974Z,176
2018-12-10T07:01:50.048Z,196
2018-12-10T07:02:58.086Z,212
2018-12-10T07:04:06.157Z,236
2018-12-10T07:05:14.221Z,248
2018-12-10T07:06:22.268Z,276
2018-12-10T07:07:30.330Z,288
2018-12-10T07:08:38.382Z,300
2018-12-10T07:09:46.426Z,324
2018-12-10T07:10:54.493Z,344
2018-12-10T07:12:02.578Z,368
2018-12-10T07:13:10.742Z,388
2018-12-10T07:14:18.666Z,408
2018-12-10T07:15:26.723Z,436
2018-12-10T07:16:34.807Z,480
2018-12-10T07:17:42.833Z,504
2018-12-10T07:18:50.895Z,516
2018-12-10T07:19:58.949Z,536
2018-12-10T07:21:07.007Z,532
2018-12-10T07:22:15.046Z,528
2018-12-10T07:23:23.125Z,548
2018-12-10T07:24:31.184Z,544
2018-12-10T07:25:39.233Z,528
2018-12-10T07:26:47.296Z,572
2018-12-10T07:27:55.323Z,608
2018-12-10T07:29:03.402Z,656
2018-12-10T07:30:11.451Z,708
2018-12-10T07:31:19.510Z,752
2018-12-10T07:32:27.573Z,788
2018-12-10T07:33:35.602Z,820
2018-12-10T07:34:43.692Z,856
2018-12-10T07:35:51.733Z,892
2018-12-10T07:36:59.804Z,912
2018-12-10T07:38:07.857Z,936
2018-12-10T07:39:15.906Z,956
2018-12-10T07:40:23.968Z,992
2018-12-10T07:41:32.024Z,1044
2018-12-10T07:42:40.087Z,1188
2018-12-10T07:43:48.126Z,1240
2018-12-10T07:44:56.198Z,1244
2018-12-10T07:46:04.244Z,1224
2018-12-10T07:47:12.312Z,1280
2018-12-10T07:48:20.373Z,1420
2018-12-10T07:49:28.435Z,1544
2018-12-10T07:50:36.513Z,1412
2018-12-10T07:51:44.556Z,1452
2018-12-10T07:52:52.589Z,1576
2018-12-10T07:54:00.649Z,1952
2018-12-10T07:55:08.712Z,2436
2018-12-10T07:56:16.761Z,2732
2018-12-10T07:57:24.813Z,2652
2018-12-10T07:58:32.868Z,2780
2018-12-10T07:59:40.932Z,2228
2018-12-10T08:00:48.991Z,2244
2018-12-10T08:01:57.052Z,2340
2018-12-10T08:03:05.077Z,2820
2018-12-10T08:04:13.157Z,3340
2018-12-10T08:05:21.214Z,3352
2018-12-10T08:06:29.291Z,3492
2018-12-10T08:07:37.335Z,2564
2018-12-10T08:08:45.360Z,1940
2018-12-10T08:09:53.438Z,2068
2018-12-10T08:11:01.515Z,2200
2018-12-10T08:12:09.556Z,2460
2018-12-10T08:13:17.617Z,2180
2018-12-10T08:14:25.646Z,2296
2018-12-10T08:15:33.731Z,2776
2018-12-10T08:16:41.803Z,3056
2018-12-10T08:17:49.839Z,3744
2018-12-10T08:18:57.899Z,3700
2018-12-10T08:20:05.958Z,2844
2018-12-10T08:21:13.999Z,3436
2018-12-10T08:22:22.077Z,2620
2018-12-10T08:23:30.195Z,2904
2018-12-10T08:24:38.246Z,2808
2018-12-10T08:25:46.260Z,3244
2018-12-10T08:26:54.311Z,4652
2018-12-10T08:28:02.353Z,4248
2018-12-10T08:29:10.428Z,4004
2018-12-10T08:30:18.489Z,4436
2018-12-10T08:31:26.529Z,4116
2018-12-10T08:32:34.596Z,3628
2018-12-10T08:33:42.656Z,3004
2018-12-10T08:34:50.712Z,2948
2018-12-10T08:35:58.780Z,3124
2018-12-10T08:37:06.819Z,2940
2018-12-10T08:38:14.867Z,2652
2018-12-10T08:39:22.945Z,2280
2018-12-10T08:40:31.022Z,2032
2018-12-10T08:41:39.071Z,2024
2018-12-10T08:42:47.136Z,2164
2018-12-10T08:43:55.146Z,2128
2018-12-10T08:45:03.238Z,1988
2018-12-10T08:46:11.303Z,1948
2018-12-10T08:47:19.358Z,1932
2018-12-10T08:48:27.420Z,1968
2018-12-10T08:49:35.465Z,2036
2018-12-10T08:50:43.516Z,2044
2018-12-10T08:51:51.586Z,2048
2018-12-10T08:52:59.654Z,2240
2018-12-10T08:54:07.693Z,2328
2018-12-10T08:55:15.740Z,2984
2018-12-10T08:56:23.819Z,3456
2018-12-10T08:57:31.885Z,2908
2018-12-10T08:58:39.925Z,2780
2018-12-10T08:59:47.995Z,2892
2018-12-10T09:00:56.026Z,2840
2018-12-10T09:02:04.104Z,2760
2018-12-10T09:03:12.165Z,2676
2018-12-10T09:04:20.214Z,2676
2018-12-10T09:05:28.284Z,2788
2018-12-10T09:06:36.340Z,3224
2018-12-10T09:07:44.404Z,3104
2018-12-10T09:08:52.457Z,2984
2018-12-10T09:10:00.522Z,3112
2018-12-10T09:11:08.564Z,3016
2018-12-10T09:12:16.625Z,3328
2018-12-10T09:13:24.672Z,3540
2018-12-10T09:14:32.755Z,3836
2018-12-10T09:15:40.804Z,4440
2018-12-10T09:16:48.848Z,3644
2018-12-10T09:17:56.927Z,3344
2018-12-10T09:19:04.968Z,3840
2018-12-10T09:20:13.037Z,3868
2018-12-10T09:21:21.100Z,4120
2018-12-10T09:22:29.144Z,4112
2018-12-10T09:23:37.210Z,5180
2018-12-10T09:24:45.237Z,5916
2018-12-10T09:25:53.319Z,6336
2018-12-10T09:27:01.397Z,7956
2018-12-10T09:28:09.443Z,9060
2018-12-10T09:29:17.510Z,8272
2018-12-10T09:30:25.539Z,7236
2018-12-10T09:31:33.615Z,4820
2018-12-10T09:32:41.686Z,3480
2018-12-10T09:33:49.720Z,3028
2018-12-10T09:34:57.782Z,3492
2018-12-10T09:36:05.833Z,3572
2018-12-10T09:37:13.907Z,3384
2018-12-10T09:38:21.959Z,4336
2018-12-10T09:39:30.256Z,5464
2018-12-10T09:40:38.086Z,5968
2018-12-10T09:41:46.154Z,5412
2018-12-10T09:42:54.200Z,6240
2018-12-10T09:44:02.262Z,5976
2018-12-10T09:45:10.326Z,5892
2018-12-10T09:46:18.387Z,6960
2018-12-10T09:47:26.521Z,6340
2018-12-10T09:48:34.513Z,5384
2018-12-10T09:49:42.563Z,4624
2018-12-10T09:50:50.615Z,5824
2018-12-10T09:51:58.668Z,6116
2018-12-10T09:53:06.726Z,4792
2018-12-10T09:54:14.782Z,4212
2018-12-10T09:55:22.852Z,4824
2018-12-10T09:56:30.989Z,5352
2018-12-10T09:57:38.976Z,6484
2018-12-10T09:58:47.037Z,6292
2018-12-10T09:59:55.071Z,3884
2018-12-10T10:01:03.158Z,2820
2018-12-10T10:02:12.331Z,2248
2018-12-10T10:03:19.276Z,2800
2018-12-10T10:04:27.331Z,2796
2018-12-10T10:05:35.390Z,2260
2018-12-10T10:06:43.939Z,1472
2018-12-10T10:07:51.512Z,1224
2018-12-10T10:08:59.567Z,988
2018-12-10T10:10:07.632Z,904
2018-12-10T10:11:15.672Z,1120
2018-12-10T10:12:23.815Z,2148
2018-12-10T10:13:31.810Z,2564
2018-12-10T10:14:39.858Z,2476
2018-12-10T10:15:47.942Z,2204
2018-12-10T10:16:55.993Z,2028
2018-12-10T10:18:04.065Z,2080
2018-12-10T10:19:12.107Z,2220
2018-12-10T10:20:20.162Z,2304
2018-12-10T10:21:28.214Z,2396
2018-12-10T10:22:36.281Z,2796
2018-12-10T10:23:44.342Z,3188
2018-12-10T10:24:52.408Z,3116
2018-12-10T10:26:00.465Z,3064
2018-12-10T10:27:08.523Z,2428
2018-12-10T10:28:16.581Z,2252
2018-12-10T10:29:24.637Z,2216
2018-12-10T10:30:32.718Z,2192
2018-12-10T10:31:40.751Z,2180
2018-12-10T10:32:48.808Z,1904
2018-12-10T10:33:56.878Z,1964
2018-12-10T10:35:04.913Z,2312
2018-12-10T10:36:12.991Z,2404
2018-12-10T10:37:21.040Z,2572
2018-12-10T10:38:29.106Z,2812
2018-12-10T10:39:37.163Z,3360
2018-12-10T10:40:45.200Z,3392
2018-12-10T10:41:53.282Z,2920
2018-12-10T10:43:01.341Z,2912
2018-12-10T10:44:09.403Z,2696
2018-12-10T10:45:17.447Z,2344
2018-12-10T10:46:25.501Z,2312
2018-12-10T10:47:33.573Z,2316
2018-12-10T10:48:41.628Z,2600
2018-12-10T10:49:49.689Z,2852
2018-12-10T10:50:57.734Z,2852
2018-12-10T10:52:05.787Z,2712
2018-12-10T10:53:13.848Z,2412
2018-12-10T10:54:21.917Z,2632
2018-12-10T10:55:29.980Z,2752
2018-12-10T10:56:38.019Z,2380
2018-12-10T10:57:46.113Z,2348
2018-12-10T10:58:54.152Z,2512
2018-12-10T11:00:02.205Z,2488
2018-12-10T11:01:10.247Z,2980
2018-12-10T11:02:18.315Z,3952
2018-12-10T11:03:26.391Z,4696
2018-12-10T11:04:37.472Z,3928
2018-12-10T11:05:42.495Z,3636
2018-12-10T11:06:50.552Z,3100
2018-12-10T11:07:58.614Z,3640
2018-12-10T11:09:14.965Z,4744
2018-12-10T11:10:14.730Z,5896
2018-12-10T11:11:22.782Z,6508
2018-12-10T11:12:30.830Z,6264
2018-12-10T11:13:38.906Z,5688
2018-12-10T11:14:47.048Z,4696
2018-12-10T11:15:55.012Z,4308
2018-12-10T11:17:03.073Z,4336
2018-12-10T11:18:11.124Z,3796
2018-12-10T11:19:19.191Z,4776
2018-12-10T11:20:27.259Z,5792
2018-12-10T11:21:35.287Z,5348
2018-12-10T11:22:43.375Z,6460
2018-12-10T11:23:51.426Z,6836
2018-12-10T11:24:59.479Z,5636
2018-12-10T11:26:07.536Z,4032
2018-12-10T11:27:15.587Z,3724
2018-12-10T11:28:23.669Z,4484
2018-12-10T11:29:31.714Z,4652
2018-12-10T11:30:39.782Z,4844
2018-12-10T11:31:47.969Z,5596
2018-12-10T11:32:55.887Z,5888
2018-12-10T11:34:03.946Z,4860
2018-12-10T11:35:12.006Z,2836
2018-12-10T11:36:20.087Z,1852
2018-12-10T11:37:28.219Z,1620
2018-12-10T11:38:36.282Z,1408
2018-12-10T11:39:44.268Z,1204
2018-12-10T11:40:52.339Z,1164
2018-12-10T11:42:00.371Z,1128
2018-12-10T11:43:08.420Z,912
2018-12-10T11:44:16.479Z,1176
2018-12-10T11:45:24.535Z,1852
2018-12-10T11:46:32.591Z,3072
2018-12-10T11:47:40.655Z,3816
2018-12-10T11:48:48.712Z,6344
2018-12-10T11:49:56.779Z,8304
2018-12-10T11:51:04.819Z,7956
2018-12-10T11:52:12.896Z,5956
2018-12-10T11:53:20.948Z,5148
2018-12-10T11:54:29.017Z,4536
2018-12-10T11:55:37.071Z,4636
2018-12-10T11:56:45.115Z,6180
2018-12-10T11:57:53.179Z,6112
2018-12-10T11:59:01.234Z,4552
2018-12-10T12:00:09.302Z,3672
2018-12-10T12:01:17.361Z,3048
2018-12-10T12:02:29.680Z,3420
2018-12-10T12:03:33.502Z,6336
2018-12-10T12:04:41.540Z,8308
2018-12-10T12:05:49.594Z,8616
2018-12-10T12:06:57.656Z,7616
2018-12-10T12:08:05.686Z,6580
2018-12-10T12:09:13.770Z,6172
2018-12-10T12:10:21.829Z,5160
2018-12-10T12:11:29.894Z,4720
2018-12-10T12:12:37.937Z,4592
2018-12-10T12:13:45.998Z,4180
2018-12-10T12:14:54.059Z,5524
2018-12-10T12:16:02.129Z,6828
2018-12-10T12:17:10.184Z,5240
2018-12-10T12:18:18.237Z,3156
2018-12-10T12:19:26.308Z,1992
2018-12-10T12:20:34.372Z,1764
2018-12-10T12:21:42.420Z,2092
2018-12-10T12:22:50.470Z,2248
2018-12-10T12:23:58.535Z,2052
2018-12-10T12:25:06.590Z,1812
2018-12-10T12:26:14.663Z,1984
2018-12-10T12:27:23.892Z,3380
2018-12-10T12:28:30.774Z,3512
2018-12-10T12:29:38.826Z,4252
2018-12-10T12:30:46.902Z,4652
2018-12-10T12:31:54.950Z,5084
2018-12-10T12:33:03.004Z,4412
2018-12-10T12:34:11.066Z,3468
2018-12-10T12:35:19.144Z,3988
2018-12-10T12:36:27.331Z,2512
2018-12-10T12:37:35.222Z,1768
2018-12-10T12:38:43.315Z,2020
2018-12-10T12:39:51.374Z,3012
2018-12-10T12:40:59.423Z,3816
2018-12-10T12:42:07.487Z,3732
2018-12-10T12:43:15.971Z,4036
2018-12-10T12:44:23.596Z,3644
2018-12-10T12:45:31.670Z,3216
2018-12-10T12:46:39.737Z,2868
2018-12-10T12:47:47.786Z,3076
2018-12-10T12:48:55.826Z,2952
2018-12-10T12:50:03.938Z,2276
2018-12-10T12:51:11.964Z,1940
2018-12-10T12:52:20.023Z,2528
2018-12-10T12:53:28.081Z,3120
2018-12-10T12:54:36.130Z,3040
2018-12-10T12:55:44.200Z,2748
2018-12-10T12:56:52.266Z,2588
2018-12-10T12:58:00.319Z,2560
2018-12-10T12:59:08.387Z,2896
2018-12-10T13:00:16.426Z,3400
2018-12-10T13:01:24.517Z,3884
2018-12-10T13:02:32.557Z,3984
2018-12-10T13:03:40.622Z,3724
2018-12-10T13:04:48.682Z,3476
2018-12-10T13:05:56.750Z,2860
2018-12-10T13:07:04.780Z,2840
2018-12-10T13:08:12.849Z,3412
2018-12-10T13:09:21.835Z,3824
2018-12-10T13:10:28.973Z,3292
2018-12-10T13:11:37.174Z,2952
2018-12-10T13:12:45.075Z,2916
2018-12-10T13:13:53.290Z,2712
2018-12-10T13:15:01.215Z,2788
2018-12-10T13:16:09.264Z,2984
2018-12-10T13:17:17.326Z,2868
2018-12-10T13:18:25.421Z,2720
2018-12-10T13:19:33.446Z,2964
2018-12-10T13:20:41.497Z,4384
2018-12-10T13:21:49.573Z,4916
2018-12-10T13:22:57.629Z,5308
2018-12-10T13:24:05.669Z,4608
2018-12-10T13:25:13.735Z,4168
2018-12-10T13:26:21.816Z,4248
2018-12-10T13:27:29.861Z,4256
2018-12-10T13:28:37.918Z,4412
2018-12-10T13:29:45.977Z,4872
2018-12-10T13:30:54.039Z,4336
2018-12-10T13:32:02.115Z,3572
2018-12-10T13:33:10.180Z,3384
2018-12-10T13:34:18.227Z,2908
2018-12-10T13:35:26.315Z,2712
2018-12-10T13:36:34.338Z,2676
2018-12-10T13:37:45.692Z,2656
2018-12-10T13:38:50.448Z,2564
2018-12-10T13:39:58.519Z,2336
2018-12-10T13:41:06.575Z,2792
2018-12-10T13:42:14.649Z,3108
2018-12-10T13:43:22.704Z,3244
2018-12-10T13:44:30.754Z,3252
2018-12-10T13:45:38.805Z,3276
2018-12-10T13:46:46.881Z,3368
2018-12-10T13:47:54.930Z,2820
2018-12-10T13:49:02.996Z,2720
2018-12-10T13:50:11.054Z,2440
2018-12-10T13:51:19.124Z,2216
2018-12-10T13:52:27.181Z,2172
2018-12-10T13:53:35.211Z,2372
2018-12-10T13:54:43.305Z,2832
2018-12-10T13:55:51.363Z,2820
2018-12-10T13:56:59.450Z,2924
2018-12-10T13:58:07.484Z,3172
2018-12-10T13:59:15.521Z,3364
2018-12-10T14:00:23.596Z,3084
2018-12-10T14:01:31.664Z,3016
2018-12-10T14:02:39.716Z,3188
2018-12-10T14:03:47.768Z,3276
2018-12-10T14:04:55.817Z,2612
2018-12-10T14:06:03.879Z,2220
2018-12-10T14:07:11.960Z,2084
2018-12-10T14:08:20.024Z,2444
2018-12-10T14:09:28.077Z,2316
2018-12-10T14:10:36.128Z,1996
2018-12-10T14:11:44.197Z,1760
2018-12-10T14:12:52.249Z,1732
2018-12-10T14:14:00.291Z,1692
2018-12-10T14:15:08.367Z,1404
2018-12-10T14:16:16.425Z,860
2018-12-10T14:17:24.497Z,784
2018-12-10T14:18:32.549Z,772
2018-12-10T14:19:40.616Z,716
2018-12-10T14:20:48.670Z,648
2018-12-10T14:21:56.718Z,672
2018-12-10T14:23:04.803Z,812
2018-12-10T14:24:12.841Z,1272
2018-12-10T14:25:20.906Z,1296
2018-12-10T14:26:28.963Z,1228
2018-12-10T14:27:37.017Z,1120
2018-12-10T14:28:45.057Z,1112
2018-12-10T14:29:53.144Z,1032
2018-12-10T14:31:01.201Z,804
2018-12-10T14:32:09.261Z,660
2018-12-10T14:33:17.326Z,616
2018-12-10T14:34:25.378Z,696
2018-12-10T14:35:33.438Z,680
2018-12-10T14:36:41.510Z,728
2018-12-10T14:37:49.558Z,584
2018-12-10T14:38:57.611Z,572
2018-12-10T14:40:05.694Z,564
2018-12-10T14:41:13.772Z,452
2018-12-10T14:42:21.794Z,436
2018-12-10T14:43:29.852Z,436
2018-12-10T14:44:37.916Z,480
2018-12-10T14:45:45.959Z,600
2018-12-10T14:46:54.026Z,588
2018-12-10T14:48:02.082Z,740
2018-12-10T14:49:10.147Z,768
2018-12-10T14:50:18.209Z,788
2018-12-10T14:51:26.271Z,828
2018-12-10T14:52:34.318Z,800
2018-12-10T14:53:42.393Z,764
2018-12-10T14:54:50.431Z,708
2018-12-10T14:55:58.500Z,712
2018-12-10T14:57:06.565Z,704
2018-12-10T14:58:14.611Z,676
2018-12-10T14:59:22.690Z,632
2018-12-10T15:00:30.739Z,580
2018-12-10T15:01:38.805Z,464
2018-12-10T15:02:47.026Z,440
2018-12-10T15:03:54.888Z,464
2018-12-10T15:05:02.984Z,460
2018-12-10T15:06:11.028Z,464
2018-12-10T15:07:19.094Z,504
2018-12-10T15:08:28.340Z,452
2018-12-10T15:09:35.182Z,368
2018-12-10T15:10:43.269Z,292
2018-12-10T15:11:51.319Z,264
2018-12-10T15:12:59.384Z,284
2018-12-10T15:14:07.426Z,264
2018-12-10T15:15:15.477Z,236
2018-12-10T15:16:23.548Z,208
2018-12-10T15:17:31.603Z,200
2018-12-10T15:18:39.662Z,192
2018-12-10T15:19:47.894Z,204
2018-12-10T15:20:55.787Z,228
2018-12-10T15:22:03.830Z,236
2018-12-10T15:23:11.906Z,244
2018-12-10T15:24:19.960Z,268
2018-12-10T15:25:28.006Z,268
2018-12-10T15:26:36.065Z,248
2018-12-10T15:27:44.533Z,216
2018-12-10T15:28:52.184Z,192
2018-12-10T15:30:00.249Z,176
2018-12-10T15:31:08.301Z,180
2018-12-10T15:32:16.370Z,172
2018-12-10T15:33:24.425Z,156
2018-12-10T15:34:32.480Z,140
2018-12-10T15:35:40.532Z,128
2018-12-10T15:36:48.596Z,116
2018-12-10T15:37:56.654Z,100
2018-12-10T15:39:04.714Z,88
2018-12-10T15:40:12.767Z,76
2018-12-10T15:41:20.817Z,68
2018-12-10T15:42:28.886Z,60
2018-12-10T15:43:36.933Z,52
2018-12-10T15:44:45.005Z,44
2018-12-10T15:45:53.050Z,36
2018-12-10T15:47:01.106Z,32
2018-12-10T15:48:09.150Z,24
2018-12-10T15:49:17.231Z,24
2018-12-10T15:50:25.253Z,20
2018-12-10T15:51:33.346Z,16
2018-12-10T15:52:41.396Z,12